createdAt,value
2017-12-24T00:00:47.828Z,9.30
2017-12-24T00:03:15.566Z,9.40
2017-12-24T00:05:43.268Z,9.30
2017-12-24T00:08:10.948Z,9.30
2017-12-24T00:10:39.462Z,9.30
2017-12-24T00:13:07.144Z,9.30
2017-12-24T00:15:34.835Z,9.30
2017-12-24T00:18:02.572Z,9.40
2017-12-24T00:20:30.263Z,9.40
2017-12-24T00:22:57.941Z,9.40
2017-12-24T00:25:25.678Z,9.40
2017-12-24T00:27:53.363Z,9.40
2017-12-24T00:30:21.811Z,9.30
2017-12-24T00:32:49.546Z,9.30
2017-12-24T00:35:17.240Z,9.30
2017-12-24T00:37:44.926Z,9.30
2017-12-24T00:40:12.670Z,9.20
2017-12-24T00:42:41.212Z,9.20
2017-12-24T00:45:08.890Z,9.10
2017-12-24T00:47:36.630Z,9.20
2017-12-24T00:50:04.314Z,9.10
2017-12-24T00:52:32.002Z,9.10
2017-12-24T00:55:00.503Z,9.20
2017-12-24T00:57:28.188Z,9.20
2017-12-24T00:59:55.876Z,9.30
2017-12-24T01:02:24.489Z,9.30
2017-12-24T01:04:52.174Z,9.30
2017-12-24T01:07:19.856Z,9.40
2017-12-24T01:09:47.604Z,9.40
2017-12-24T01:12:15.286Z,9.30
2017-12-24T01:14:42.972Z,9.40
2017-12-24T01:17:11.481Z,9.20
2017-12-24T01:19:39.166Z,9.20
2017-12-24T01:22:06.849Z,9.10
2017-12-24T01:24:34.643Z,9.00
2017-12-24T01:27:03.097Z,8.90
2017-12-24T01:29:30.791Z,9.00
2017-12-24T01:31:58.531Z,8.90
2017-12-24T01:34:26.975Z,8.80
2017-12-24T01:36:54.654Z,8.80
2017-12-24T01:39:22.396Z,8.90
2017-12-24T01:41:50.082Z,8.90
2017-12-24T01:44:17.773Z,9.00
2017-12-24T01:46:45.526Z,9.00
2017-12-24T01:49:13.213Z,9.00
2017-12-24T01:51:40.902Z,9.10
2017-12-24T01:54:08.663Z,9.10
2017-12-24T01:56:36.349Z,9.10
2017-12-24T01:59:04.081Z,9.10
2017-12-24T02:01:31.817Z,9.00
2017-12-24T02:03:59.503Z,9.10
2017-12-24T02:06:27.210Z,9.10
2017-12-24T02:08:54.957Z,9.20
2017-12-24T02:11:23.406Z,9.10
2017-12-24T02:13:51.412Z,9.10
2017-12-24T02:16:20.212Z,9.10
2017-12-24T02:18:47.897Z,9.10
2017-12-24T02:21:15.583Z,9.10
2017-12-24T02:23:43.317Z,9.10
2017-12-24T02:26:11.062Z,9.10
2017-12-24T02:28:38.733Z,9.20
2017-12-24T02:31:06.477Z,9.10
2017-12-24T02:33:34.159Z,9.20
2017-12-24T02:36:01.843Z,9.20
2017-12-24T02:38:29.586Z,9.10
2017-12-24T02:40:57.264Z,9.10
2017-12-24T02:43:24.954Z,9.10
2017-12-24T02:45:53.537Z,9.10
2017-12-24T02:48:21.981Z,9.10
2017-12-24T02:50:49.661Z,9.10
2017-12-24T02:53:17.403Z,9.10
2017-12-24T02:55:45.093Z,9.20
2017-12-24T02:58:13.538Z,9.20
2017-12-24T03:00:41.290Z,9.10
2017-12-24T03:03:09.744Z,9.00
2017-12-24T03:05:37.427Z,9.00
2017-12-24T03:08:05.160Z,9.00
2017-12-24T03:10:32.850Z,9.00
2017-12-24T03:13:00.533Z,9.00
2017-12-24T03:15:28.274Z,9.00
2017-12-24T03:17:55.954Z,9.10
2017-12-24T03:20:23.637Z,9.10
2017-12-24T03:22:52.136Z,9.20
2017-12-24T03:25:19.824Z,9.10
2017-12-24T03:27:47.509Z,9.20
2017-12-24T03:30:15.247Z,9.20
2017-12-24T03:32:42.936Z,9.20
2017-12-24T03:35:10.634Z,9.20
2017-12-24T03:37:38.374Z,9.20
2017-12-24T03:40:06.819Z,9.30
2017-12-24T03:42:34.504Z,9.20
2017-12-24T03:45:03.007Z,9.30
2017-12-24T03:47:30.690Z,9.30
2017-12-24T03:49:58.369Z,9.30
2017-12-24T03:52:26.110Z,9.30
2017-12-24T03:54:53.789Z,9.30
2017-12-24T03:57:21.469Z,9.30
2017-12-24T03:59:49.464Z,9.30
2017-12-24T04:02:17.152Z,9.30
2017-12-24T04:04:44.878Z,9.30
2017-12-24T04:07:13.386Z,9.40
2017-12-24T04:09:41.111Z,9.30
2017-12-24T04:12:09.559Z,9.40
2017-12-24T04:14:37.303Z,9.40
2017-12-24T04:17:04.991Z,9.40
2017-12-24T04:19:32.678Z,9.40
2017-12-24T04:22:01.178Z,9.40
2017-12-24T04:24:28.866Z,9.40
2017-12-24T04:26:56.542Z,9.40
2017-12-24T04:29:24.285Z,9.40
2017-12-24T04:31:51.966Z,9.40
2017-12-24T04:34:19.658Z,9.40
2017-12-24T04:36:48.158Z,9.40
2017-12-24T04:39:15.837Z,9.40
2017-12-24T04:41:43.520Z,9.40
2017-12-24T04:44:11.255Z,9.50
2017-12-24T04:46:38.939Z,9.50
2017-12-24T04:49:06.622Z,9.50
2017-12-24T04:51:34.387Z,9.50
2017-12-24T04:54:02.833Z,9.50
2017-12-24T04:56:30.513Z,9.50
2017-12-24T04:58:58.271Z,9.50
2017-12-24T05:01:25.955Z,9.50
2017-12-24T05:03:54.467Z,9.50
2017-12-24T05:06:22.204Z,9.50
2017-12-24T05:08:50.657Z,9.60
2017-12-24T05:11:18.348Z,9.60
2017-12-24T05:13:46.089Z,9.60
2017-12-24T05:16:14.536Z,9.60
2017-12-24T05:18:42.222Z,9.60
2017-12-24T05:21:10.022Z,9.60
2017-12-24T05:23:37.706Z,9.60
2017-12-24T05:26:05.391Z,9.60
2017-12-24T05:28:33.135Z,9.50
2017-12-24T05:31:00.838Z,9.50
2017-12-24T05:33:29.325Z,9.50
2017-12-24T05:35:57.060Z,9.50
2017-12-24T05:38:24.746Z,9.50
2017-12-24T05:40:52.451Z,9.60
2017-12-24T05:43:20.190Z,9.60
2017-12-24T05:45:47.868Z,9.60
2017-12-24T05:48:16.314Z,9.60
2017-12-24T05:50:44.052Z,9.60
2017-12-24T05:53:12.500Z,9.60
2017-12-24T05:55:40.186Z,9.60
2017-12-24T05:58:08.691Z,9.60
2017-12-24T06:00:36.374Z,9.60
2017-12-24T06:03:04.053Z,9.60
2017-12-24T06:05:31.789Z,9.60
2017-12-24T06:07:59.475Z,9.60
2017-12-24T06:10:27.155Z,9.60
2017-12-24T06:12:54.894Z,9.60
2017-12-24T06:15:22.573Z,9.60
2017-12-24T06:17:50.249Z,9.50
2017-12-24T06:20:18.753Z,9.50
2017-12-24T06:22:46.440Z,9.50
2017-12-24T06:25:14.133Z,9.60
2017-12-24T06:27:41.865Z,9.50
2017-12-24T06:30:09.550Z,9.50
2017-12-24T06:32:37.237Z,9.60
2017-12-24T06:35:05.737Z,9.60
2017-12-24T06:37:33.483Z,9.60
2017-12-24T06:40:01.927Z,9.50
2017-12-24T06:42:29.663Z,9.50
2017-12-24T06:44:57.345Z,9.50
2017-12-24T06:47:25.044Z,9.60
2017-12-24T06:49:52.782Z,9.50
2017-12-24T06:52:21.260Z,9.50
2017-12-24T06:54:48.945Z,9.50
2017-12-24T06:57:16.711Z,9.50
2017-12-24T06:59:44.390Z,9.50
2017-12-24T07:02:12.074Z,9.50
2017-12-24T07:04:39.815Z,9.50
2017-12-24T07:07:07.495Z,9.50
2017-12-24T07:09:35.182Z,9.50
2017-12-24T07:12:03.686Z,9.40
2017-12-24T07:14:31.386Z,9.40
2017-12-24T07:16:59.074Z,9.50
2017-12-24T07:19:26.815Z,9.50
2017-12-24T07:21:54.494Z,9.50
2017-12-24T07:24:22.170Z,9.50
2017-12-24T07:26:50.670Z,9.50
2017-12-24T07:29:18.355Z,9.40
2017-12-24T07:31:46.040Z,9.50
2017-12-24T07:34:13.774Z,9.40
2017-12-24T07:36:41.457Z,9.50
2017-12-24T07:39:09.154Z,9.50
2017-12-24T07:41:37.684Z,9.50
2017-12-24T07:44:05.361Z,9.50
2017-12-24T07:46:33.049Z,9.50
2017-12-24T07:49:01.555Z,9.50
2017-12-24T07:51:29.239Z,9.50
2017-12-24T07:53:56.921Z,9.50
2017-12-24T07:56:24.659Z,9.40
2017-12-24T07:58:52.339Z,9.40
2017-12-24T08:01:20.083Z,9.50
2017-12-24T08:03:47.835Z,9.50
2017-12-24T08:06:15.563Z,9.60
2017-12-24T08:08:43.250Z,9.60
2017-12-24T08:11:11.007Z,9.60
2017-12-24T08:13:38.690Z,9.60
2017-12-24T08:16:06.382Z,9.50
2017-12-24T08:18:34.135Z,9.60
2017-12-24T08:21:01.813Z,9.60
2017-12-24T08:23:30.258Z,9.60
2017-12-24T08:25:57.998Z,9.60
2017-12-24T08:28:25.678Z,9.60
2017-12-24T08:30:53.357Z,9.60
2017-12-24T08:33:21.110Z,9.70
2017-12-24T08:35:48.804Z,9.70
2017-12-24T08:38:17.351Z,9.70
2017-12-24T08:40:45.105Z,9.60
2017-12-24T08:43:12.781Z,9.60
2017-12-24T08:45:40.470Z,9.70
2017-12-24T08:48:08.215Z,9.80
2017-12-24T08:50:36.662Z,9.80
2017-12-24T08:53:04.346Z,9.80
2017-12-24T08:55:32.845Z,9.80
2017-12-24T08:58:00.534Z,9.80
2017-12-24T09:00:28.213Z,9.70
2017-12-24T09:02:55.945Z,9.80
2017-12-24T09:05:23.624Z,9.80
2017-12-24T09:07:51.306Z,9.70
2017-12-24T09:10:19.057Z,9.70
2017-12-24T09:12:46.737Z,9.80
2017-12-24T09:15:14.430Z,9.70
2017-12-24T09:17:42.172Z,9.70
2017-12-24T09:20:10.622Z,9.90
2017-12-24T09:22:38.302Z,9.90
2017-12-24T09:25:06.039Z,9.90
2017-12-24T09:27:33.726Z,10.00
2017-12-24T09:30:02.173Z,10.00
2017-12-24T09:32:29.919Z,10.00
2017-12-24T09:34:57.613Z,10.00
2017-12-24T09:37:25.296Z,9.90
2017-12-24T09:39:53.805Z,10.10
2017-12-24T09:42:21.511Z,10.10
2017-12-24T09:44:49.194Z,10.10
2017-12-24T09:47:17.777Z,10.10
2017-12-24T09:49:46.228Z,10.10
2017-12-24T09:52:13.921Z,10.10
2017-12-24T09:54:41.693Z,10.10
2017-12-24T09:57:09.387Z,10.10
2017-12-24T09:59:37.075Z,10.10
2017-12-24T10:02:04.830Z,10.20
2017-12-24T10:04:32.529Z,10.20
2017-12-24T10:07:00.222Z,10.10
2017-12-24T10:09:27.965Z,10.20
2017-12-24T10:11:55.678Z,10.20
2017-12-24T10:14:23.370Z,10.30
2017-12-24T10:16:51.222Z,10.30
2017-12-24T10:19:19.725Z,10.30
2017-12-24T10:21:47.517Z,10.30
2017-12-24T10:24:15.436Z,10.30
2017-12-24T10:26:43.889Z,10.30
2017-12-24T10:29:11.650Z,10.30
2017-12-24T10:31:40.353Z,10.30
2017-12-24T10:34:08.045Z,10.30
2017-12-24T10:36:35.756Z,10.30
2017-12-24T10:39:03.747Z,10.30
2017-12-24T10:41:31.437Z,10.40
2017-12-24T10:43:59.187Z,10.40
2017-12-24T10:46:26.934Z,10.30
2017-12-24T10:48:54.635Z,10.20
2017-12-24T10:51:22.316Z,10.20
2017-12-24T10:53:50.075Z,10.30
2017-12-24T10:56:17.828Z,10.30
2017-12-24T10:58:45.522Z,10.30
2017-12-24T11:01:14.030Z,10.30
2017-12-24T11:03:41.727Z,10.30
2017-12-24T11:06:10.198Z,10.20
2017-12-24T11:08:37.947Z,10.20
2017-12-24T11:11:05.653Z,10.20
2017-12-24T11:13:33.339Z,10.20
2017-12-24T11:16:01.087Z,10.20
2017-12-24T11:18:29.538Z,10.20
2017-12-24T11:20:57.233Z,10.10
2017-12-24T11:23:24.979Z,10.20
2017-12-24T11:25:53.437Z,10.10
2017-12-24T11:28:21.138Z,10.10
2017-12-24T11:30:48.891Z,10.20
2017-12-24T11:33:17.347Z,10.20
2017-12-24T11:35:45.040Z,10.20
2017-12-24T11:38:12.883Z,10.20
2017-12-24T11:40:41.338Z,10.30
2017-12-24T11:43:09.039Z,10.30
2017-12-24T11:45:36.795Z,10.30
2017-12-24T11:48:05.261Z,10.30
2017-12-24T11:50:33.723Z,10.30
2017-12-24T11:53:01.486Z,10.30
2017-12-24T11:55:29.191Z,10.30
2017-12-24T11:57:56.886Z,10.30
2017-12-24T12:00:24.637Z,10.40
2017-12-24T12:02:52.328Z,10.40
2017-12-24T12:05:20.012Z,10.40
2017-12-24T12:07:47.770Z,10.40
2017-12-24T12:10:16.230Z,10.30
2017-12-24T12:12:43.928Z,10.20
2017-12-24T12:15:20.774Z,10.20
2017-12-24T12:17:56.706Z,10.40
2017-12-24T12:20:24.454Z,10.40
2017-12-24T12:22:52.145Z,10.40
2017-12-24T12:25:20.616Z,10.40
2017-12-24T12:27:49.172Z,10.40
2017-12-24T12:30:16.863Z,10.30
2017-12-24T12:32:44.546Z,10.30
2017-12-24T12:35:12.282Z,10.30
2017-12-24T12:37:40.747Z,10.30
2017-12-24T12:40:08.517Z,10.30
2017-12-24T12:42:36.262Z,10.20
2017-12-24T12:45:03.970Z,10.20
2017-12-24T12:47:31.662Z,10.20
2017-12-24T12:50:00.254Z,10.30
2017-12-24T12:52:27.945Z,10.30
2017-12-24T12:54:56.403Z,10.20
2017-12-24T12:57:24.163Z,10.20
2017-12-24T12:59:51.863Z,10.20
2017-12-24T13:02:19.576Z,10.20
2017-12-24T13:04:48.043Z,10.20
2017-12-24T13:07:15.731Z,10.10
2017-12-24T13:09:43.428Z,10.20
2017-12-24T13:12:11.243Z,10.20
2017-12-24T13:14:38.950Z,10.20
2017-12-24T13:17:07.482Z,10.30
2017-12-24T13:19:35.250Z,10.20
2017-12-24T13:22:02.951Z,10.20
2017-12-24T13:24:30.650Z,10.20
2017-12-24T13:26:58.432Z,10.30
2017-12-24T13:29:26.135Z,10.20
2017-12-24T13:31:53.841Z,10.20
2017-12-24T13:34:21.759Z,10.20
2017-12-24T13:36:49.604Z,10.20
2017-12-24T13:39:18.055Z,10.10
2017-12-24T13:41:45.855Z,10.10
2017-12-24T13:44:14.382Z,10.20
2017-12-24T13:46:42.985Z,10.20
2017-12-24T13:49:10.793Z,10.20
2017-12-24T13:51:38.541Z,10.20
2017-12-24T13:54:08.012Z,10.10
2017-12-24T13:56:36.662Z,10.10
2017-12-24T13:59:04.358Z,10.20
2017-12-24T14:01:32.046Z,10.20
2017-12-24T14:03:59.829Z,10.20
2017-12-24T14:06:27.548Z,10.10
2017-12-24T14:08:55.252Z,10.10
2017-12-24T14:11:23.019Z,10.10
2017-12-24T14:13:50.728Z,10.10
2017-12-24T14:16:18.422Z,10.10
2017-12-24T14:18:46.176Z,10.10
2017-12-24T14:21:13.865Z,10.10
2017-12-24T14:23:41.578Z,10.00
2017-12-24T14:26:10.084Z,10.10
2017-12-24T14:28:37.806Z,10.10
2017-12-24T14:31:05.518Z,10.10
2017-12-24T14:33:33.276Z,10.10
2017-12-24T14:36:01.012Z,10.10
2017-12-24T14:38:29.466Z,10.10
2017-12-24T14:40:57.213Z,10.10
2017-12-24T14:43:24.902Z,10.00
2017-12-24T14:45:53.360Z,10.00
2017-12-24T14:48:21.113Z,10.00
2017-12-24T14:50:48.794Z,10.00
2017-12-24T14:53:17.262Z,10.10
2017-12-24T14:55:45.010Z,10.10
2017-12-24T14:58:12.698Z,10.10
2017-12-24T15:00:41.158Z,10.10
2017-12-24T15:03:08.922Z,10.10
2017-12-24T15:05:36.610Z,10.00
2017-12-24T15:08:05.062Z,10.10
2017-12-24T15:10:32.817Z,10.10
2017-12-24T15:13:00.510Z,10.10
2017-12-24T15:15:28.982Z,10.10
2017-12-24T15:17:57.490Z,10.10
2017-12-24T15:20:25.174Z,10.10
2017-12-24T15:22:52.857Z,10.10
2017-12-24T15:25:20.602Z,10.10
2017-12-24T15:27:48.306Z,10.10
2017-12-24T15:30:16.765Z,10.10
2017-12-24T15:32:44.515Z,10.10
2017-12-24T15:35:12.222Z,10.10
2017-12-24T15:37:39.919Z,10.20
2017-12-24T15:40:07.658Z,10.10
2017-12-24T15:42:35.347Z,10.10
2017-12-24T15:45:03.035Z,10.10
2017-12-24T15:47:31.551Z,10.10
2017-12-24T15:49:59.238Z,10.00
2017-12-24T15:52:26.933Z,10.10
2017-12-24T15:54:55.500Z,10.10
2017-12-24T15:57:23.191Z,10.00
2017-12-24T15:59:51.655Z,10.10
2017-12-24T16:02:20.173Z,10.10
2017-12-24T16:04:47.874Z,10.00
2017-12-24T16:07:15.586Z,10.10
2017-12-24T16:09:44.098Z,10.10
2017-12-24T16:12:11.811Z,10.10
2017-12-24T16:14:40.269Z,10.10
2017-12-24T16:17:08.018Z,10.10
2017-12-24T16:19:35.711Z,10.10
2017-12-24T16:22:04.169Z,10.10
2017-12-24T16:24:31.922Z,10.10
2017-12-24T16:26:59.613Z,10.10
2017-12-24T16:29:27.312Z,10.10
2017-12-24T16:31:55.826Z,10.10
2017-12-24T16:34:23.519Z,10.10
2017-12-24T16:36:51.232Z,10.00
2017-12-24T16:39:18.979Z,10.10
2017-12-24T16:41:46.671Z,10.00
2017-12-24T16:44:14.350Z,9.90
2017-12-24T16:46:42.105Z,9.90
2017-12-24T16:49:10.553Z,10.00
2017-12-24T16:51:38.241Z,10.00
2017-12-24T16:54:06.750Z,10.00
2017-12-24T16:56:34.438Z,10.00
2017-12-24T16:59:02.117Z,9.90
2017-12-24T17:01:29.859Z,9.90
2017-12-24T17:03:57.545Z,9.90
2017-12-24T17:06:25.231Z,9.90
2017-12-24T17:08:53.730Z,9.90
2017-12-24T17:11:21.412Z,9.90
2017-12-24T17:13:49.121Z,9.90
2017-12-24T17:16:17.639Z,10.00
2017-12-24T17:18:45.324Z,10.00
2017-12-24T17:21:13.772Z,10.00
2017-12-24T17:23:41.518Z,10.00
2017-12-24T17:26:09.204Z,10.10
2017-12-24T17:28:36.890Z,10.10
2017-12-24T17:31:04.698Z,10.00
2017-12-24T17:33:32.385Z,10.00
2017-12-24T17:36:00.070Z,10.00
2017-12-24T17:38:27.819Z,10.00
2017-12-24T17:40:55.514Z,10.00
2017-12-24T17:43:23.967Z,10.00
2017-12-24T17:45:51.712Z,10.00
2017-12-24T17:48:19.398Z,10.00
2017-12-24T17:50:47.081Z,10.00
2017-12-24T17:53:15.620Z,10.10
2017-12-24T17:55:43.318Z,10.10
2017-12-24T17:58:11.775Z,10.10
2017-12-24T18:00:39.516Z,10.10
2017-12-24T18:03:07.962Z,10.10
2017-12-24T18:05:35.651Z,10.10
2017-12-24T18:08:03.387Z,10.10
2017-12-24T18:10:31.083Z,10.10
2017-12-24T18:12:58.770Z,10.10
2017-12-24T18:15:26.514Z,10.10
2017-12-24T18:17:54.202Z,10.00
2017-12-24T18:20:22.660Z,10.10
2017-12-24T18:22:50.408Z,10.00
2017-12-24T18:25:18.111Z,10.10
2017-12-24T18:27:45.806Z,10.10
2017-12-24T18:30:13.550Z,10.10
2017-12-24T18:32:41.241Z,10.10
2017-12-24T18:35:08.930Z,10.10
2017-12-24T18:37:36.678Z,10.10
2017-12-24T18:40:04.366Z,10.00
2017-12-24T18:42:32.833Z,10.10
2017-12-24T18:45:01.342Z,10.10
2017-12-24T18:47:29.029Z,10.10
2017-12-24T18:49:56.734Z,10.10
2017-12-24T18:52:25.257Z,10.10
2017-12-24T18:54:52.951Z,10.10
2017-12-24T18:57:20.641Z,10.10
2017-12-24T18:59:49.153Z,10.00
2017-12-24T19:02:16.842Z,10.00
2017-12-24T19:04:44.534Z,10.00
2017-12-24T19:07:13.044Z,10.00
2017-12-24T19:09:40.751Z,10.00
2017-12-24T19:12:08.443Z,10.00
2017-12-24T19:14:36.202Z,9.90
2017-12-24T19:17:03.899Z,9.90
2017-12-24T19:19:31.622Z,9.90
2017-12-24T19:22:00.131Z,10.00
2017-12-24T19:24:27.821Z,10.00
2017-12-24T19:26:55.506Z,9.90
2017-12-24T19:29:23.253Z,10.00
2017-12-24T19:31:50.935Z,9.90
2017-12-24T19:34:19.395Z,9.90
2017-12-24T19:36:47.150Z,9.90
2017-12-24T19:39:14.839Z,9.80
2017-12-24T19:41:43.291Z,9.80
2017-12-24T19:44:11.052Z,9.80
2017-12-24T19:46:38.733Z,9.80
2017-12-24T19:49:07.184Z,9.70
2017-12-24T19:51:35.765Z,9.70
2017-12-24T19:54:03.433Z,9.70
2017-12-24T19:56:31.111Z,9.80
2017-12-24T19:58:59.627Z,9.80
2017-12-24T20:01:27.311Z,9.80
2017-12-24T20:03:54.994Z,9.90
2017-12-24T20:06:22.990Z,9.90
2017-12-24T20:08:51.443Z,9.90
2017-12-24T20:11:19.126Z,9.90
2017-12-24T20:13:47.654Z,9.90
2017-12-24T20:16:15.330Z,9.90
2017-12-24T20:18:43.022Z,9.90
2017-12-24T20:21:11.521Z,9.90
2017-12-24T20:23:39.217Z,9.90
2017-12-24T20:26:13.890Z,9.90
2017-12-24T20:28:43.776Z,9.90
2017-12-24T20:31:11.522Z,9.90
2017-12-24T20:33:47.138Z,9.90
2017-12-24T20:36:15.898Z,9.80
2017-12-24T20:38:45.720Z,9.80
2017-12-24T20:41:24.949Z,9.80
2017-12-24T20:43:53.529Z,9.70
2017-12-24T20:46:28.798Z,9.70
2017-12-24T20:49:03.538Z,9.70
2017-12-24T20:51:38.424Z,9.60
2017-12-24T20:54:11.687Z,9.60
2017-12-24T20:56:47.941Z,9.60
2017-12-24T20:59:19.857Z,9.60
2017-12-24T21:01:56.415Z,9.60
2017-12-24T21:04:29.141Z,9.60
2017-12-24T21:07:02.401Z,9.60
2017-12-24T21:09:37.700Z,9.60
2017-12-24T21:12:17.283Z,9.60
2017-12-24T21:14:52.058Z,9.60
2017-12-24T21:17:24.134Z,9.60
2017-12-24T21:19:56.401Z,9.60
2017-12-24T21:22:30.267Z,9.60
2017-12-24T21:24:57.990Z,9.70
2017-12-24T21:27:26.452Z,9.70
2017-12-24T21:29:54.210Z,9.70
2017-12-24T21:32:21.901Z,9.70
2017-12-24T21:34:49.663Z,9.70
2017-12-24T21:37:19.667Z,9.70
2017-12-24T21:39:47.431Z,9.70
2017-12-24T21:42:15.189Z,9.60
2017-12-24T21:44:42.966Z,9.60
2017-12-24T21:47:10.658Z,9.60
2017-12-24T21:49:39.105Z,9.60
2017-12-24T21:52:06.910Z,9.60
2017-12-24T21:54:35.392Z,9.60
2017-12-24T21:57:03.868Z,9.70
2017-12-24T21:59:32.387Z,9.70
2017-12-24T22:02:00.138Z,9.70
2017-12-24T22:04:28.242Z,9.60
2017-12-24T22:06:55.989Z,9.60
2017-12-24T22:09:23.692Z,9.60
2017-12-24T22:11:52.148Z,9.70
2017-12-24T22:14:19.897Z,9.70
2017-12-24T22:16:47.578Z,9.60
2017-12-24T22:19:16.033Z,9.60
2017-12-24T22:21:43.786Z,9.60
2017-12-24T22:24:11.515Z,9.60
2017-12-24T22:26:39.354Z,9.60
2017-12-24T22:29:07.107Z,9.60
2017-12-24T22:31:34.788Z,9.70
2017-12-24T22:34:02.465Z,9.80
2017-12-24T22:36:30.209Z,9.70
2017-12-24T22:38:57.890Z,9.60
2017-12-24T22:41:25.600Z,9.60
2017-12-24T22:43:53.343Z,9.60
2017-12-24T22:46:21.027Z,9.70
2017-12-24T22:48:48.711Z,9.70
2017-12-24T22:51:16.565Z,9.70
2017-12-24T22:53:45.046Z,9.60
2017-12-24T22:56:13.494Z,9.70
2017-12-24T22:58:41.291Z,9.70
2017-12-24T23:01:09.742Z,9.60
2017-12-24T23:03:37.446Z,9.60
2017-12-24T23:06:05.250Z,9.60
2017-12-24T23:08:33.026Z,9.70
2017-12-24T23:11:00.717Z,9.70
2017-12-24T23:13:28.674Z,9.70
2017-12-24T23:15:57.118Z,9.70
2017-12-24T23:18:24.805Z,9.70
2017-12-24T23:20:53.350Z,9.80
2017-12-24T23:23:21.835Z,9.80
2017-12-24T23:25:49.551Z,9.80
2017-12-24T23:28:17.297Z,9.80
2017-12-24T23:30:45.757Z,9.80
2017-12-24T23:33:14.219Z,9.80
2017-12-24T23:35:41.963Z,9.80
2017-12-24T23:38:09.654Z,9.80
2017-12-24T23:40:37.342Z,9.80
2017-12-24T23:43:05.095Z,9.80
2017-12-24T23:45:34.353Z,9.90
2017-12-24T23:48:02.051Z,9.80
2017-12-24T23:50:29.797Z,9.80
2017-12-24T23:52:58.243Z,9.90
2017-12-24T23:55:25.917Z,9.80
2017-12-24T23:57:53.670Z,9.80
